sensor_id;sensor_type;location;lat;lon;timestamp;P1;durP1;ratioP1;P2;durP2;ratioP2
58615;SDS011;44385;51.992;4.206;2023-12-29T00:01:57;15.98;;;3.72;;
58615;SDS011;44385;51.992;4.206;2023-12-29T00:04:24;23.65;;;4.15;;
58615;SDS011;44385;51.992;4.206;2023-12-29T00:06:52;16.08;;;3.60;;
58615;SDS011;44385;51.992;4.206;2023-12-29T00:09:18;18.45;;;3.67;;
58615;SDS011;44385;51.992;4.206;2023-12-29T00:11:45;16.75;;;3.67;;
58615;SDS011;44385;51.992;4.206;2023-12-29T00:14:12;15.82;;;4.25;;
58615;SDS011;44385;51.992;4.206;2023-12-29T00:16:38;20.63;;;4.07;;
58615;SDS011;44385;51.992;4.206;2023-12-29T00:19:04;18.50;;;4.03;;
58615;SDS011;44385;51.992;4.206;2023-12-29T00:21:31;18.25;;;4.25;;
58615;SDS011;44385;51.992;4.206;2023-12-29T00:23:59;17.02;;;3.58;;
58615;SDS011;44385;51.992;4.206;2023-12-29T00:26:25;20.45;;;4.13;;
58615;SDS011;44385;51.992;4.206;2023-12-29T00:28:53;14.02;;;2.97;;
58615;SDS011;44385;51.992;4.206;2023-12-29T00:31:20;19.50;;;3.78;;
58615;SDS011;44385;51.992;4.206;2023-12-29T00:33:46;16.25;;;3.28;;
58615;SDS011;44385;51.992;4.206;2023-12-29T00:36:17;13.73;;;3.50;;
58615;SDS011;44385;51.992;4.206;2023-12-29T00:38:44;14.82;;;3.42;;
58615;SDS011;44385;51.992;4.206;2023-12-29T00:41:12;15.73;;;2.67;;
58615;SDS011;44385;51.992;4.206;2023-12-29T00:43:38;16.20;;;3.53;;
58615;SDS011;44385;51.992;4.206;2023-12-29T00:46:05;14.68;;;3.38;;
58615;SDS011;44385;51.992;4.206;2023-12-29T00:48:32;19.27;;;4.10;;
58615;SDS011;44385;51.992;4.206;2023-12-29T00:51:00;19.83;;;3.78;;
58615;SDS011;44385;51.992;4.206;2023-12-29T00:53:26;17.48;;;3.50;;
58615;SDS011;44385;51.992;4.206;2023-12-29T00:55:54;17.92;;;3.20;;
58615;SDS011;44385;51.992;4.206;2023-12-29T00:58:22;14.77;;;3.45;;
58615;SDS011;44385;51.992;4.206;2023-12-29T01:00:51;16.70;;;3.53;;
58615;SDS011;44385;51.992;4.206;2023-12-29T01:03:17;18.17;;;4.00;;
58615;SDS011;44385;51.992;4.206;2023-12-29T01:05:45;14.40;;;2.92;;
58615;SDS011;44385;51.992;4.206;2023-12-29T01:08:11;13.93;;;3.08;;
58615;SDS011;44385;51.992;4.206;2023-12-29T01:10:38;15.55;;;3.45;;
58615;SDS011;44385;51.992;4.206;2023-12-29T01:13:04;14.50;;;3.05;;
58615;SDS011;44385;51.992;4.206;2023-12-29T01:15:32;19.33;;;3.20;;
58615;SDS011;44385;51.992;4.206;2023-12-29T01:18:00;15.48;;;3.88;;
58615;SDS011;44385;51.992;4.206;2023-12-29T01:20:26;9.43;;;3.17;;
58615;SDS011;44385;51.992;4.206;2023-12-29T01:22:52;16.48;;;3.85;;
58615;SDS011;44385;51.992;4.206;2023-12-29T01:25:19;12.88;;;3.42;;
58615;SDS011;44385;51.992;4.206;2023-12-29T01:27:45;13.35;;;3.25;;
58615;SDS011;44385;51.992;4.206;2023-12-29T01:30:16;12.55;;;2.95;;
58615;SDS011;44385;51.992;4.206;2023-12-29T01:32:44;11.68;;;3.42;;
58615;SDS011;44385;51.992;4.206;2023-12-29T01:35:11;18.05;;;3.38;;
58615;SDS011;44385;51.992;4.206;2023-12-29T01:37:37;18.25;;;5.13;;
58615;SDS011;44385;51.992;4.206;2023-12-29T01:40:04;10.68;;;3.10;;
58615;SDS011;44385;51.992;4.206;2023-12-29T01:42:31;21.15;;;4.10;;
58615;SDS011;44385;51.992;4.206;2023-12-29T01:44:57;15.43;;;4.25;;
58615;SDS011;44385;51.992;4.206;2023-12-29T01:47:23;12.05;;;2.55;;
58615;SDS011;44385;51.992;4.206;2023-12-29T01:49:51;8.52;;;2.83;;
58615;SDS011;44385;51.992;4.206;2023-12-29T01:52:18;15.93;;;2.90;;
58615;SDS011;44385;51.992;4.206;2023-12-29T01:54:45;16.55;;;3.17;;
58615;SDS011;44385;51.992;4.206;2023-12-29T01:57:14;18.13;;;3.20;;
58615;SDS011;44385;51.992;4.206;2023-12-29T01:59:41;14.27;;;3.15;;
58615;SDS011;44385;51.992;4.206;2023-12-29T02:02:10;13.20;;;3.27;;
58615;SDS011;44385;51.992;4.206;2023-12-29T02:04:37;14.43;;;3.90;;
58615;SDS011;44385;51.992;4.206;2023-12-29T02:07:05;14.57;;;3.70;;
58615;SDS011;44385;51.992;4.206;2023-12-29T02:09:31;15.75;;;3.95;;
58615;SDS011;44385;51.992;4.206;2023-12-29T02:11:59;20.05;;;3.88;;
58615;SDS011;44385;51.992;4.206;2023-12-29T02:14:26;15.85;;;3.10;;
58615;SDS011;44385;51.992;4.206;2023-12-29T02:16:55;23.17;;;5.05;;
58615;SDS011;44385;51.992;4.206;2023-12-29T02:19:25;22.45;;;4.88;;
58615;SDS011;44385;51.992;4.206;2023-12-29T02:21:53;25.42;;;5.25;;
58615;SDS011;44385;51.992;4.206;2023-12-29T02:24:21;23.40;;;4.90;;
58615;SDS011;44385;51.992;4.206;2023-12-29T02:26:52;21.42;;;4.95;;
58615;SDS011;44385;51.992;4.206;2023-12-29T02:29:22;35.47;;;6.72;;
58615;SDS011;44385;51.992;4.206;2023-12-29T02:31:50;18.63;;;4.55;;
58615;SDS011;44385;51.992;4.206;2023-12-29T02:34:18;27.17;;;6.15;;
58615;SDS011;44385;51.992;4.206;2023-12-29T02:36:45;22.67;;;5.75;;
58615;SDS011;44385;51.992;4.206;2023-12-29T02:39:16;38.85;;;7.18;;
58615;SDS011;44385;51.992;4.206;2023-12-29T02:41:43;28.40;;;5.68;;
58615;SDS011;44385;51.992;4.206;2023-12-29T02:44:11;39.72;;;8.05;;
58615;SDS011;44385;51.992;4.206;2023-12-29T02:46:37;24.70;;;5.78;;
58615;SDS011;44385;51.992;4.206;2023-12-29T02:49:04;36.88;;;7.18;;
58615;SDS011;44385;51.992;4.206;2023-12-29T02:51:30;44.08;;;9.10;;
58615;SDS011;44385;51.992;4.206;2023-12-29T02:53:57;41.88;;;7.40;;
58615;SDS011;44385;51.992;4.206;2023-12-29T02:56:25;35.53;;;6.95;;
58615;SDS011;44385;51.992;4.206;2023-12-29T02:58:51;27.77;;;7.05;;
58615;SDS011;44385;51.992;4.206;2023-12-29T03:01:19;36.13;;;6.22;;
58615;SDS011;44385;51.992;4.206;2023-12-29T03:03:45;33.58;;;6.82;;
58615;SDS011;44385;51.992;4.206;2023-12-29T03:06:14;25.60;;;4.80;;
58615;SDS011;44385;51.992;4.206;2023-12-29T03:08:40;38.95;;;6.30;;
58615;SDS011;44385;51.992;4.206;2023-12-29T03:11:07;37.83;;;6.40;;
58615;SDS011;44385;51.992;4.206;2023-12-29T03:13:33;33.70;;;6.13;;
58615;SDS011;44385;51.992;4.206;2023-12-29T03:15:59;25.83;;;5.95;;
58615;SDS011;44385;51.992;4.206;2023-12-29T03:18:27;39.67;;;6.85;;
58615;SDS011;44385;51.992;4.206;2023-12-29T03:20:54;23.50;;;5.70;;
58615;SDS011;44385;51.992;4.206;2023-12-29T03:23:21;41.53;;;6.65;;
58615;SDS011;44385;51.992;4.206;2023-12-29T03:25:50;37.45;;;8.55;;
58615;SDS011;44385;51.992;4.206;2023-12-29T03:28:16;49.65;;;9.20;;
58615;SDS011;44385;51.992;4.206;2023-12-29T03:30:43;31.95;;;8.38;;
58615;SDS011;44385;51.992;4.206;2023-12-29T03:33:10;50.58;;;8.57;;
58615;SDS011;44385;51.992;4.206;2023-12-29T03:35:38;23.80;;;5.07;;
58615;SDS011;44385;51.992;4.206;2023-12-29T03:38:04;36.65;;;8.35;;
58615;SDS011;44385;51.992;4.206;2023-12-29T03:40:31;31.60;;;7.38;;
58615;SDS011;44385;51.992;4.206;2023-12-29T03:42:57;25.75;;;5.90;;
58615;SDS011;44385;51.992;4.206;2023-12-29T03:45:23;30.15;;;4.85;;
58615;SDS011;44385;51.992;4.206;2023-12-29T03:47:50;24.98;;;5.40;;
58615;SDS011;44385;51.992;4.206;2023-12-29T03:50:17;19.63;;;4.72;;
58615;SDS011;44385;51.992;4.206;2023-12-29T03:52:45;35.72;;;6.70;;
58615;SDS011;44385;51.992;4.206;2023-12-29T03:55:11;29.50;;;7.10;;
58615;SDS011;44385;51.992;4.206;2023-12-29T03:57:39;29.13;;;6.07;;
58615;SDS011;44385;51.992;4.206;2023-12-29T04:00:06;27.77;;;6.30;;
58615;SDS011;44385;51.992;4.206;2023-12-29T04:02:33;41.33;;;8.52;;
58615;SDS011;44385;51.992;4.206;2023-12-29T04:04:59;33.65;;;5.53;;
58615;SDS011;44385;51.992;4.206;2023-12-29T04:07:26;32.10;;;6.15;;
58615;SDS011;44385;51.992;4.206;2023-12-29T04:09:54;31.48;;;6.15;;
58615;SDS011;44385;51.992;4.206;2023-12-29T04:12:20;33.42;;;6.57;;
58615;SDS011;44385;51.992;4.206;2023-12-29T04:14:51;24.50;;;5.22;;
58615;SDS011;44385;51.992;4.206;2023-12-29T04:17:17;35.15;;;6.68;;
58615;SDS011;44385;51.992;4.206;2023-12-29T04:19:44;31.42;;;5.65;;
58615;SDS011;44385;51.992;4.206;2023-12-29T04:22:10;30.52;;;6.10;;
58615;SDS011;44385;51.992;4.206;2023-12-29T04:24:37;31.75;;;7.40;;
58615;SDS011;44385;51.992;4.206;2023-12-29T04:27:05;26.40;;;5.18;;
58615;SDS011;44385;51.992;4.206;2023-12-29T04:29:31;27.63;;;7.63;;
58615;SDS011;44385;51.992;4.206;2023-12-29T04:31:57;45.92;;;7.22;;
58615;SDS011;44385;51.992;4.206;2023-12-29T04:34:24;34.05;;;7.10;;
58615;SDS011;44385;51.992;4.206;2023-12-29T04:36:50;42.03;;;7.43;;
58615;SDS011;44385;51.992;4.206;2023-12-29T04:39:17;40.95;;;6.97;;
58615;SDS011;44385;51.992;4.206;2023-12-29T04:41:44;36.47;;;8.48;;
58615;SDS011;44385;51.992;4.206;2023-12-29T04:44:12;30.95;;;6.95;;
58615;SDS011;44385;51.992;4.206;2023-12-29T04:46:38;35.90;;;6.43;;
58615;SDS011;44385;51.992;4.206;2023-12-29T04:49:04;31.60;;;4.75;;
58615;SDS011;44385;51.992;4.206;2023-12-29T04:51:31;44.85;;;8.57;;
58615;SDS011;44385;51.992;4.206;2023-12-29T04:53:57;32.35;;;5.75;;
58615;SDS011;44385;51.992;4.206;2023-12-29T04:56:24;33.60;;;7.47;;
58615;SDS011;44385;51.992;4.206;2023-12-29T04:58:50;44.22;;;7.40;;
58615;SDS011;44385;51.992;4.206;2023-12-29T05:01:19;32.22;;;5.97;;
58615;SDS011;44385;51.992;4.206;2023-12-29T05:03:45;41.50;;;6.90;;
58615;SDS011;44385;51.992;4.206;2023-12-29T05:06:11;31.05;;;6.60;;
58615;SDS011;44385;51.992;4.206;2023-12-29T05:08:38;34.83;;;7.50;;
58615;SDS011;44385;51.992;4.206;2023-12-29T05:11:04;47.28;;;8.27;;
58615;SDS011;44385;51.992;4.206;2023-12-29T05:13:31;43.92;;;7.90;;
58615;SDS011;44385;51.992;4.206;2023-12-29T05:15:58;37.33;;;5.97;;
58615;SDS011;44385;51.992;4.206;2023-12-29T05:18:26;39.78;;;7.80;;
58615;SDS011;44385;51.992;4.206;2023-12-29T05:20:54;41.33;;;8.07;;
58615;SDS011;44385;51.992;4.206;2023-12-29T05:23:21;34.70;;;5.80;;
58615;SDS011;44385;51.992;4.206;2023-12-29T05:25:51;28.70;;;7.03;;
58615;SDS011;44385;51.992;4.206;2023-12-29T05:30:44;28.30;;;6.43;;
58615;SDS011;44385;51.992;4.206;2023-12-29T05:33:10;30.60;;;5.38;;
58615;SDS011;44385;51.992;4.206;2023-12-29T05:35:38;38.70;;;6.78;;
58615;SDS011;44385;51.992;4.206;2023-12-29T05:38:04;30.60;;;5.95;;
58615;SDS011;44385;51.992;4.206;2023-12-29T05:40:31;28.98;;;5.47;;
58615;SDS011;44385;51.992;4.206;2023-12-29T05:42:57;26.85;;;5.20;;
58615;SDS011;44385;51.992;4.206;2023-12-29T05:45:24;25.33;;;5.90;;
58615;SDS011;44385;51.992;4.206;2023-12-29T05:47:50;21.70;;;5.18;;
58615;SDS011;44385;51.992;4.206;2023-12-29T05:50:17;27.08;;;5.07;;
58615;SDS011;44385;51.992;4.206;2023-12-29T05:52:45;20.90;;;3.92;;
58615;SDS011;44385;51.992;4.206;2023-12-29T05:55:14;24.95;;;5.60;;
58615;SDS011;44385;51.992;4.206;2023-12-29T05:57:41;15.60;;;4.40;;
58615;SDS011;44385;51.992;4.206;2023-12-29T06:00:08;28.95;;;4.93;;
58615;SDS011;44385;51.992;4.206;2023-12-29T06:02:39;25.13;;;5.40;;
58615;SDS011;44385;51.992;4.206;2023-12-29T06:05:05;21.45;;;5.30;;
58615;SDS011;44385;51.992;4.206;2023-12-29T06:07:32;27.00;;;4.20;;
58615;SDS011;44385;51.992;4.206;2023-12-29T06:10:00;25.55;;;5.43;;
58615;SDS011;44385;51.992;4.206;2023-12-29T06:12:27;27.17;;;5.18;;
58615;SDS011;44385;51.992;4.206;2023-12-29T06:14:53;36.30;;;5.88;;
58615;SDS011;44385;51.992;4.206;2023-12-29T06:17:20;17.17;;;4.90;;
58615;SDS011;44385;51.992;4.206;2023-12-29T06:19:46;26.92;;;5.40;;
58615;SDS011;44385;51.992;4.206;2023-12-29T06:22:16;24.23;;;5.13;;
58615;SDS011;44385;51.992;4.206;2023-12-29T06:24:45;28.23;;;5.07;;
58615;SDS011;44385;51.992;4.206;2023-12-29T06:27:12;17.35;;;3.80;;
58615;SDS011;44385;51.992;4.206;2023-12-29T06:29:40;21.73;;;3.92;;
58615;SDS011;44385;51.992;4.206;2023-12-29T06:32:07;24.83;;;3.63;;
58615;SDS011;44385;51.992;4.206;2023-12-29T06:34:33;21.63;;;4.15;;
58615;SDS011;44385;51.992;4.206;2023-12-29T06:37:00;22.02;;;5.07;;
58615;SDS011;44385;51.992;4.206;2023-12-29T06:39:26;18.30;;;4.10;;
58615;SDS011;44385;51.992;4.206;2023-12-29T06:41:53;19.65;;;3.45;;
58615;SDS011;44385;51.992;4.206;2023-12-29T06:44:21;15.85;;;3.45;;
58615;SDS011;44385;51.992;4.206;2023-12-29T06:46:51;17.33;;;4.05;;
58615;SDS011;44385;51.992;4.206;2023-12-29T06:49:17;16.05;;;3.25;;
58615;SDS011;44385;51.992;4.206;2023-12-29T06:51:44;12.82;;;3.17;;
58615;SDS011;44385;51.992;4.206;2023-12-29T06:54:10;18.45;;;4.45;;
58615;SDS011;44385;51.992;4.206;2023-12-29T06:56:37;18.60;;;4.63;;
58615;SDS011;44385;51.992;4.206;2023-12-29T06:59:03;17.33;;;4.70;;
58615;SDS011;44385;51.992;4.206;2023-12-29T07:01:31;24.48;;;4.70;;
58615;SDS011;44385;51.992;4.206;2023-12-29T07:03:58;20.15;;;4.25;;
58615;SDS011;44385;51.992;4.206;2023-12-29T07:06:24;22.10;;;3.90;;
58615;SDS011;44385;51.992;4.206;2023-12-29T07:08:51;16.88;;;3.60;;
58615;SDS011;44385;51.992;4.206;2023-12-29T07:11:17;11.15;;;2.20;;
58615;SDS011;44385;51.992;4.206;2023-12-29T07:13:44;18.80;;;3.38;;
58615;SDS011;44385;51.992;4.206;2023-12-29T07:16:10;16.27;;;3.63;;
58615;SDS011;44385;51.992;4.206;2023-12-29T07:18:38;19.70;;;4.95;;
58615;SDS011;44385;51.992;4.206;2023-12-29T07:21:05;16.98;;;3.10;;
58615;SDS011;44385;51.992;4.206;2023-12-29T07:23:31;10.65;;;3.03;;
58615;SDS011;44385;51.992;4.206;2023-12-29T07:25:58;14.65;;;3.05;;
58615;SDS011;44385;51.992;4.206;2023-12-29T07:28:24;15.23;;;4.05;;
58615;SDS011;44385;51.992;4.206;2023-12-29T07:30:51;12.95;;;2.17;;
58615;SDS011;44385;51.992;4.206;2023-12-29T07:33:17;16.02;;;3.28;;
58615;SDS011;44385;51.992;4.206;2023-12-29T07:35:45;14.00;;;3.17;;
58615;SDS011;44385;51.992;4.206;2023-12-29T07:38:12;15.55;;;3.28;;
58615;SDS011;44385;51.992;4.206;2023-12-29T07:40:38;12.18;;;2.45;;
58615;SDS011;44385;51.992;4.206;2023-12-29T07:43:05;15.38;;;2.42;;
58615;SDS011;44385;51.992;4.206;2023-12-29T07:45:31;15.00;;;3.10;;
58615;SDS011;44385;51.992;4.206;2023-12-29T07:47:58;14.10;;;2.70;;
58615;SDS011;44385;51.992;4.206;2023-12-29T07:50:24;11.05;;;3.50;;
58615;SDS011;44385;51.992;4.206;2023-12-29T07:52:52;8.32;;;2.10;;
58615;SDS011;44385;51.992;4.206;2023-12-29T07:55:19;13.60;;;2.47;;
58615;SDS011;44385;51.992;4.206;2023-12-29T07:57:45;9.07;;;2.90;;
58615;SDS011;44385;51.992;4.206;2023-12-29T08:00:18;10.45;;;2.63;;
58615;SDS011;44385;51.992;4.206;2023-12-29T08:02:45;9.60;;;1.95;;
58615;SDS011;44385;51.992;4.206;2023-12-29T08:05:11;8.95;;;2.25;;
58615;SDS011;44385;51.992;4.206;2023-12-29T08:07:39;8.10;;;2.53;;
58615;SDS011;44385;51.992;4.206;2023-12-29T08:10:08;11.90;;;2.97;;
58615;SDS011;44385;51.992;4.206;2023-12-29T08:12:34;11.27;;;2.57;;
58615;SDS011;44385;51.992;4.206;2023-12-29T08:15:02;9.05;;;2.50;;
58615;SDS011;44385;51.992;4.206;2023-12-29T08:17:28;12.35;;;2.30;;
58615;SDS011;44385;51.992;4.206;2023-12-29T08:19:56;11.52;;;2.65;;
58615;SDS011;44385;51.992;4.206;2023-12-29T08:22:22;9.38;;;2.80;;
58615;SDS011;44385;51.992;4.206;2023-12-29T08:24:49;10.63;;;1.90;;
58615;SDS011;44385;51.992;4.206;2023-12-29T08:27:23;14.38;;;2.47;;
58615;SDS011;44385;51.992;4.206;2023-12-29T08:29:50;12.02;;;2.70;;
58615;SDS011;44385;51.992;4.206;2023-12-29T08:32:18;14.10;;;1.75;;
58615;SDS011;44385;51.992;4.206;2023-12-29T08:34:44;9.55;;;2.38;;
58615;SDS011;44385;51.992;4.206;2023-12-29T08:37:11;8.32;;;1.90;;
58615;SDS011;44385;51.992;4.206;2023-12-29T08:39:37;10.30;;;2.50;;
58615;SDS011;44385;51.992;4.206;2023-12-29T08:42:03;9.85;;;2.03;;
58615;SDS011;44385;51.992;4.206;2023-12-29T08:44:32;10.38;;;2.40;;
58615;SDS011;44385;51.992;4.206;2023-12-29T08:46:59;14.95;;;2.38;;
58615;SDS011;44385;51.992;4.206;2023-12-29T08:49:25;14.05;;;2.67;;
58615;SDS011;44385;51.992;4.206;2023-12-29T08:51:52;17.42;;;2.97;;
58615;SDS011;44385;51.992;4.206;2023-12-29T08:54:18;14.10;;;2.17;;
58615;SDS011;44385;51.992;4.206;2023-12-29T08:56:44;10.00;;;1.85;;
58615;SDS011;44385;51.992;4.206;2023-12-29T08:59:11;12.48;;;2.75;;
58615;SDS011;44385;51.992;4.206;2023-12-29T09:01:39;10.05;;;2.20;;
58615;SDS011;44385;51.992;4.206;2023-12-29T09:04:05;12.18;;;2.70;;
58615;SDS011;44385;51.992;4.206;2023-12-29T09:06:32;12.18;;;2.58;;
58615;SDS011;44385;51.992;4.206;2023-12-29T09:08:58;17.23;;;2.95;;
58615;SDS011;44385;51.992;4.206;2023-12-29T09:11:25;7.10;;;2.03;;
58615;SDS011;44385;51.992;4.206;2023-12-29T09:13:52;16.85;;;3.15;;
58615;SDS011;44385;51.992;4.206;2023-12-29T09:16:18;8.25;;;2.55;;
58615;SDS011;44385;51.992;4.206;2023-12-29T09:18:46;16.30;;;2.40;;
58615;SDS011;44385;51.992;4.206;2023-12-29T09:21:15;18.90;;;3.33;;
58615;SDS011;44385;51.992;4.206;2023-12-29T09:23:41;18.92;;;3.05;;
58615;SDS011;44385;51.992;4.206;2023-12-29T09:26:08;17.63;;;3.53;;
58615;SDS011;44385;51.992;4.206;2023-12-29T09:28:34;14.18;;;2.90;;
58615;SDS011;44385;51.992;4.206;2023-12-29T09:31:01;13.10;;;2.92;;
58615;SDS011;44385;51.992;4.206;2023-12-29T09:33:27;20.33;;;3.38;;
58615;SDS011;44385;51.992;4.206;2023-12-29T09:35:55;11.15;;;2.63;;
58615;SDS011;44385;51.992;4.206;2023-12-29T09:38:21;20.13;;;3.60;;
58615;SDS011;44385;51.992;4.206;2023-12-29T09:40:49;18.00;;;4.07;;
58615;SDS011;44385;51.992;4.206;2023-12-29T09:43:17;14.60;;;2.85;;
58615;SDS011;44385;51.992;4.206;2023-12-29T09:45:45;18.05;;;3.45;;
58615;SDS011;44385;51.992;4.206;2023-12-29T09:48:11;11.25;;;2.95;;
58615;SDS011;44385;51.992;4.206;2023-12-29T09:50:39;15.30;;;3.03;;
58615;SDS011;44385;51.992;4.206;2023-12-29T09:53:07;18.60;;;3.60;;
58615;SDS011;44385;51.992;4.206;2023-12-29T09:55:36;13.82;;;2.97;;
58615;SDS011;44385;51.992;4.206;2023-12-29T09:58:04;14.23;;;3.00;;
58615;SDS011;44385;51.992;4.206;2023-12-29T10:00:31;14.68;;;3.28;;
58615;SDS011;44385;51.992;4.206;2023-12-29T10:02:57;25.45;;;6.05;;
58615;SDS011;44385;51.992;4.206;2023-12-29T10:05:24;9.30;;;2.70;;
58615;SDS011;44385;51.992;4.206;2023-12-29T10:07:50;21.05;;;4.70;;
58615;SDS011;44385;51.992;4.206;2023-12-29T10:10:19;26.02;;;4.70;;
58615;SDS011;44385;51.992;4.206;2023-12-29T10:12:49;15.85;;;3.80;;
58615;SDS011;44385;51.992;4.206;2023-12-29T10:15:24;26.35;;;4.13;;
58615;SDS011;44385;51.992;4.206;2023-12-29T10:17:52;18.70;;;4.78;;
58615;SDS011;44385;51.992;4.206;2023-12-29T10:20:23;29.90;;;5.55;;
58615;SDS011;44385;51.992;4.206;2023-12-29T10:22:51;21.98;;;4.70;;
58615;SDS011;44385;51.992;4.206;2023-12-29T10:25:22;22.85;;;4.43;;
58615;SDS011;44385;51.992;4.206;2023-12-29T10:27:52;24.00;;;4.82;;
58615;SDS011;44385;51.992;4.206;2023-12-29T10:30:19;28.65;;;5.18;;
58615;SDS011;44385;51.992;4.206;2023-12-29T10:32:50;16.23;;;3.17;;
58615;SDS011;44385;51.992;4.206;2023-12-29T10:35:18;26.38;;;3.63;;
58615;SDS011;44385;51.992;4.206;2023-12-29T10:37:45;24.45;;;4.45;;
58615;SDS011;44385;51.992;4.206;2023-12-29T10:40:16;16.92;;;3.65;;
58615;SDS011;44385;51.992;4.206;2023-12-29T10:42:52;20.30;;;3.83;;
58615;SDS011;44385;51.992;4.206;2023-12-29T10:45:19;17.45;;;5.43;;
58615;SDS011;44385;51.992;4.206;2023-12-29T10:47:46;24.05;;;4.93;;
58615;SDS011;44385;51.992;4.206;2023-12-29T10:50:16;27.95;;;4.57;;
58615;SDS011;44385;51.992;4.206;2023-12-29T10:52:43;28.67;;;5.40;;
58615;SDS011;44385;51.992;4.206;2023-12-29T10:55:11;23.65;;;4.78;;
58615;SDS011;44385;51.992;4.206;2023-12-29T10:57:39;25.33;;;4.78;;
58615;SDS011;44385;51.992;4.206;2023-12-29T11:00:07;20.10;;;4.40;;
58615;SDS011;44385;51.992;4.206;2023-12-29T11:02:34;24.27;;;5.27;;
58615;SDS011;44385;51.992;4.206;2023-12-29T11:05:01;31.60;;;5.10;;
58615;SDS011;44385;51.992;4.206;2023-12-29T11:07:34;23.92;;;4.32;;
58615;SDS011;44385;51.992;4.206;2023-12-29T11:10:02;20.20;;;4.88;;
58615;SDS011;44385;51.992;4.206;2023-12-29T11:12:29;13.00;;;2.47;;
58615;SDS011;44385;51.992;4.206;2023-12-29T11:14:56;26.35;;;4.85;;
58615;SDS011;44385;51.992;4.206;2023-12-29T11:17:24;26.52;;;4.93;;
58615;SDS011;44385;51.992;4.206;2023-12-29T11:19:52;24.60;;;4.78;;
58615;SDS011;44385;51.992;4.206;2023-12-29T11:22:19;34.17;;;6.47;;
58615;SDS011;44385;51.992;4.206;2023-12-29T11:24:46;17.92;;;3.78;;
58615;SDS011;44385;51.992;4.206;2023-12-29T11:27:15;22.48;;;4.43;;
58615;SDS011;44385;51.992;4.206;2023-12-29T11:29:42;16.25;;;4.05;;
58615;SDS011;44385;51.992;4.206;2023-12-29T11:32:11;20.13;;;3.63;;
58615;SDS011;44385;51.992;4.206;2023-12-29T11:34:41;24.25;;;3.95;;
58615;SDS011;44385;51.992;4.206;2023-12-29T11:37:11;29.42;;;4.43;;
58615;SDS011;44385;51.992;4.206;2023-12-29T11:39:44;26.55;;;5.00;;
58615;SDS011;44385;51.992;4.206;2023-12-29T11:42:19;15.02;;;3.67;;
58615;SDS011;44385;51.992;4.206;2023-12-29T11:44:48;20.98;;;4.43;;
58615;SDS011;44385;51.992;4.206;2023-12-29T11:47:34;22.20;;;3.30;;
58615;SDS011;44385;51.992;4.206;2023-12-29T11:50:02;14.65;;;4.20;;
58615;SDS011;44385;51.992;4.206;2023-12-29T11:52:32;22.67;;;4.68;;
58615;SDS011;44385;51.992;4.206;2023-12-29T11:55:06;20.55;;;4.53;;
58615;SDS011;44385;51.992;4.206;2023-12-29T11:57:33;20.25;;;4.13;;
58615;SDS011;44385;51.992;4.206;2023-12-29T12:00:01;18.67;;;4.30;;
58615;SDS011;44385;51.992;4.206;2023-12-29T12:02:28;15.50;;;4.22;;
58615;SDS011;44385;51.992;4.206;2023-12-29T12:04:54;20.05;;;3.45;;
58615;SDS011;44385;51.992;4.206;2023-12-29T12:12:45;14.98;;;2.83;;
58615;SDS011;44385;51.992;4.206;2023-12-29T12:17:43;16.85;;;3.83;;
58615;SDS011;44385;51.992;4.206;2023-12-29T12:20:11;13.45;;;3.40;;
58615;SDS011;44385;51.992;4.206;2023-12-29T12:22:39;20.92;;;3.47;;
58615;SDS011;44385;51.992;4.206;2023-12-29T12:25:05;13.38;;;3.40;;
58615;SDS011;44385;51.992;4.206;2023-12-29T12:27:33;15.27;;;3.22;;
58615;SDS011;44385;51.992;4.206;2023-12-29T12:30:01;19.40;;;4.75;;
58615;SDS011;44385;51.992;4.206;2023-12-29T12:32:28;20.57;;;3.23;;
58615;SDS011;44385;51.992;4.206;2023-12-29T12:34:55;19.00;;;3.67;;
58615;SDS011;44385;51.992;4.206;2023-12-29T12:37:22;12.63;;;2.47;;
58615;SDS011;44385;51.992;4.206;2023-12-29T12:39:49;22.98;;;3.80;;
58615;SDS011;44385;51.992;4.206;2023-12-29T12:42:17;20.67;;;3.50;;
58615;SDS011;44385;51.992;4.206;2023-12-29T12:44:47;12.93;;;3.63;;
58615;SDS011;44385;51.992;4.206;2023-12-29T12:47:32;20.75;;;3.85;;
58615;SDS011;44385;51.992;4.206;2023-12-29T12:49:59;15.07;;;3.15;;
58615;SDS011;44385;51.992;4.206;2023-12-29T12:52:29;16.67;;;3.78;;
58615;SDS011;44385;51.992;4.206;2023-12-29T12:54:56;14.48;;;2.75;;
58615;SDS011;44385;51.992;4.206;2023-12-29T12:57:22;19.23;;;3.67;;
58615;SDS011;44385;51.992;4.206;2023-12-29T12:59:50;18.02;;;3.08;;
58615;SDS011;44385;51.992;4.206;2023-12-29T13:02:16;21.67;;;4.00;;
58615;SDS011;44385;51.992;4.206;2023-12-29T13:04:46;12.40;;;2.92;;
58615;SDS011;44385;51.992;4.206;2023-12-29T13:07:16;14.73;;;2.90;;
58615;SDS011;44385;51.992;4.206;2023-12-29T13:09:43;15.43;;;2.70;;
58615;SDS011;44385;51.992;4.206;2023-12-29T13:12:10;11.88;;;2.85;;
58615;SDS011;44385;51.992;4.206;2023-12-29T13:14:37;13.52;;;2.67;;
58615;SDS011;44385;51.992;4.206;2023-12-29T13:17:07;10.60;;;2.90;;
58615;SDS011;44385;51.992;4.206;2023-12-29T13:19:34;11.70;;;2.80;;
58615;SDS011;44385;51.992;4.206;2023-12-29T13:22:02;16.08;;;3.30;;
58615;SDS011;44385;51.992;4.206;2023-12-29T13:24:29;19.75;;;3.33;;
58615;SDS011;44385;51.992;4.206;2023-12-29T13:26:57;16.75;;;3.78;;
58615;SDS011;44385;51.992;4.206;2023-12-29T13:29:24;18.30;;;4.30;;
58615;SDS011;44385;51.992;4.206;2023-12-29T13:31:52;15.57;;;3.45;;
58615;SDS011;44385;51.992;4.206;2023-12-29T13:34:20;20.42;;;3.60;;
58615;SDS011;44385;51.992;4.206;2023-12-29T13:36:49;14.88;;;3.33;;
58615;SDS011;44385;51.992;4.206;2023-12-29T13:39:21;17.30;;;3.30;;
58615;SDS011;44385;51.992;4.206;2023-12-29T13:41:49;14.75;;;3.47;;
58615;SDS011;44385;51.992;4.206;2023-12-29T13:44:16;16.15;;;3.63;;
58615;SDS011;44385;51.992;4.206;2023-12-29T13:46:45;22.98;;;3.75;;
58615;SDS011;44385;51.992;4.206;2023-12-29T13:49:12;15.45;;;3.83;;
58615;SDS011;44385;51.992;4.206;2023-12-29T13:51:40;19.13;;;4.15;;
58615;SDS011;44385;51.992;4.206;2023-12-29T13:54:07;18.60;;;3.88;;
58615;SDS011;44385;51.992;4.206;2023-12-29T13:56:36;22.17;;;4.30;;
58615;SDS011;44385;51.992;4.206;2023-12-29T13:59:03;30.23;;;5.03;;
58615;SDS011;44385;51.992;4.206;2023-12-29T14:01:35;25.90;;;4.70;;
58615;SDS011;44385;51.992;4.206;2023-12-29T14:04:03;22.10;;;5.90;;
58615;SDS011;44385;51.992;4.206;2023-12-29T14:06:30;25.90;;;5.07;;
58615;SDS011;44385;51.992;4.206;2023-12-29T14:08:58;29.70;;;6.07;;
58615;SDS011;44385;51.992;4.206;2023-12-29T14:11:25;27.52;;;5.75;;
58615;SDS011;44385;51.992;4.206;2023-12-29T14:13:52;26.00;;;4.75;;
58615;SDS011;44385;51.992;4.206;2023-12-29T14:16:20;33.03;;;5.70;;
58615;SDS011;44385;51.992;4.206;2023-12-29T14:18:56;27.65;;;6.03;;
58615;SDS011;44385;51.992;4.206;2023-12-29T14:21:24;32.55;;;6.28;;
58615;SDS011;44385;51.992;4.206;2023-12-29T14:23:59;28.25;;;5.32;;
58615;SDS011;44385;51.992;4.206;2023-12-29T14:26:26;27.38;;;6.78;;
58615;SDS011;44385;51.992;4.206;2023-12-29T14:29:01;19.05;;;5.78;;
58615;SDS011;44385;51.992;4.206;2023-12-29T14:31:27;22.90;;;4.63;;
58615;SDS011;44385;51.992;4.206;2023-12-29T14:33:54;26.27;;;5.40;;
58615;SDS011;44385;51.992;4.206;2023-12-29T14:36:20;21.30;;;6.45;;
58615;SDS011;44385;51.992;4.206;2023-12-29T14:38:46;28.40;;;5.90;;
58615;SDS011;44385;51.992;4.206;2023-12-29T14:41:14;25.33;;;4.47;;
58615;SDS011;44385;51.992;4.206;2023-12-29T14:43:40;33.47;;;5.90;;
58615;SDS011;44385;51.992;4.206;2023-12-29T14:46:08;28.17;;;6.00;;
58615;SDS011;44385;51.992;4.206;2023-12-29T14:48:35;32.10;;;5.80;;